createdAt,value
2022-07-29T00:01:45.754Z,9.43
2022-07-29T00:04:15.012Z,7.70
2022-07-29T00:06:44.118Z,9.35
2022-07-29T00:09:12.976Z,10.38
2022-07-29T00:11:42.280Z,11.57
2022-07-29T00:14:11.516Z,8.57
2022-07-29T00:16:40.513Z,7.57
2022-07-29T00:19:10.864Z,8.95
2022-07-29T00:21:39.980Z,10.45
2022-07-29T00:24:08.997Z,9.80
2022-07-29T00:26:37.903Z,11.97
2022-07-29T00:29:32.985Z,7.97
2022-07-29T00:31:56.140Z,8.18
2022-07-29T00:34:43.890Z,9.57
2022-07-29T00:37:12.950Z,10.80
2022-07-29T00:39:41.916Z,11.40
2022-07-29T00:42:11.029Z,8.75
2022-07-29T00:44:40.358Z,9.68
2022-07-29T00:47:27.738Z,7.85
2022-07-29T00:49:58.251Z,11.90
2022-07-29T00:52:27.236Z,10.43
2022-07-29T00:54:56.082Z,10.18
2022-07-29T00:57:25.007Z,12.02
2022-07-29T00:59:53.871Z,11.70
2022-07-29T01:02:22.897Z,9.60
2022-07-29T01:04:51.856Z,8.33
2022-07-29T01:07:22.305Z,9.02
2022-07-29T01:09:51.308Z,8.48
2022-07-29T01:12:20.468Z,8.98
2022-07-29T01:14:49.467Z,9.43
2022-07-29T01:17:20.286Z,12.60
2022-07-29T01:19:51.588Z,9.55
2022-07-29T01:22:27.755Z,10.23
2022-07-29T01:25:14.276Z,8.80
2022-07-29T01:27:46.585Z,9.27
2022-07-29T01:30:17.029Z,10.67
2022-07-29T01:32:46.039Z,9.35
2022-07-29T01:35:17.320Z,10.55
2022-07-29T01:37:46.740Z,11.05
2022-07-29T01:40:19.456Z,10.82
2022-07-29T01:43:08.714Z,10.00
2022-07-29T01:45:39.765Z,11.20
2022-07-29T01:48:09.272Z,11.95
2022-07-29T01:50:38.776Z,13.38
2022-07-29T01:53:08.678Z,9.70
2022-07-29T01:55:37.665Z,15.93
2022-07-29T01:58:07.201Z,11.05
2022-07-29T02:00:36.075Z,11.40
2022-07-29T02:03:06.748Z,11.65
2022-07-29T02:05:35.733Z,11.80
2022-07-29T02:08:04.870Z,10.97
2022-07-29T02:10:34.259Z,12.80
2022-07-29T02:13:03.367Z,10.35
2022-07-29T02:15:33.552Z,14.10
2022-07-29T02:18:03.559Z,11.52
2022-07-29T02:20:33.870Z,14.70
2022-07-29T02:23:02.800Z,13.40
2022-07-29T02:25:37.196Z,10.85
2022-07-29T02:28:07.858Z,11.57
2022-07-29T02:30:37.709Z,13.60
2022-07-29T02:33:06.623Z,13.90
2022-07-29T02:35:37.004Z,13.02
2022-07-29T02:38:23.107Z,14.18
2022-07-29T02:40:52.083Z,13.07
2022-07-29T02:43:20.968Z,14.70
2022-07-29T02:45:51.852Z,13.10
2022-07-29T02:48:21.046Z,12.55
2022-07-29T02:50:51.532Z,14.27
2022-07-29T02:53:20.714Z,19.13
2022-07-29T02:55:51.395Z,14.90
2022-07-29T02:58:22.264Z,15.90
2022-07-29T03:01:11.324Z,17.30
2022-07-29T03:03:40.413Z,17.23
2022-07-29T03:06:10.747Z,15.20
2022-07-29T03:09:00.113Z,14.30
2022-07-29T03:11:46.062Z,18.67
2022-07-29T03:14:18.844Z,15.95
2022-07-29T03:16:48.171Z,15.98
2022-07-29T03:19:17.468Z,15.35
2022-07-29T03:21:48.156Z,17.15
2022-07-29T03:24:29.894Z,16.97
2022-07-29T03:26:59.151Z,17.75
2022-07-29T03:29:34.083Z,16.13
2022-07-29T03:32:08.234Z,16.38
2022-07-29T03:34:38.056Z,17.50
2022-07-29T03:37:08.411Z,17.40
2022-07-29T03:39:39.314Z,16.70
2022-07-29T03:42:08.387Z,16.27
2022-07-29T03:44:37.460Z,14.05
2022-07-29T03:47:35.527Z,20.95
2022-07-29T03:50:16.505Z,15.43
2022-07-29T03:52:46.777Z,15.65
2022-07-29T03:55:15.939Z,16.15
2022-07-29T03:57:44.827Z,20.92
2022-07-29T04:00:14.190Z,14.38
2022-07-29T04:02:46.311Z,14.37
2022-07-29T04:05:33.713Z,18.38
2022-07-29T04:08:04.161Z,16.20
2022-07-29T04:10:33.990Z,51.03
2022-07-29T04:13:03.198Z,20.40
2022-07-29T04:15:32.445Z,18.03
2022-07-29T04:18:01.379Z,14.70
2022-07-29T04:20:30.343Z,15.60
2022-07-29T04:22:59.341Z,15.90
2022-07-29T04:25:29.707Z,16.42
2022-07-29T04:28:04.425Z,12.90
2022-07-29T04:30:33.649Z,17.55
2022-07-29T04:33:03.045Z,16.88
2022-07-29T04:35:38.261Z,19.98
2022-07-29T04:38:07.914Z,16.08
2022-07-29T04:40:47.198Z,13.67
2022-07-29T04:43:22.443Z,13.40
2022-07-29T04:45:52.805Z,13.40
2022-07-29T04:48:26.671Z,12.52
2022-07-29T04:50:57.845Z,14.13
2022-07-29T04:53:27.395Z,22.43
2022-07-29T04:55:57.808Z,17.38
2022-07-29T04:58:26.685Z,17.08
2022-07-29T05:00:55.610Z,12.60
2022-07-29T05:03:24.415Z,14.32
2022-07-29T05:05:53.410Z,12.17
2022-07-29T05:08:22.287Z,17.67
2022-07-29T05:11:13.514Z,16.58
2022-07-29T05:13:45.224Z,13.15
2022-07-29T05:16:15.574Z,18.95
2022-07-29T05:18:44.476Z,15.80
2022-07-29T05:21:13.377Z,12.88
2022-07-29T05:23:42.306Z,13.93
2022-07-29T05:26:13.286Z,13.45
2022-07-29T05:28:42.174Z,13.15
2022-07-29T05:31:11.028Z,18.37
2022-07-29T05:33:40.053Z,19.48
2022-07-29T05:36:08.999Z,11.80
2022-07-29T05:38:38.064Z,14.15
2022-07-29T05:41:07.057Z,10.55
2022-07-29T05:43:37.476Z,14.10
2022-07-29T05:46:06.523Z,12.48
2022-07-29T05:48:35.527Z,16.50
2022-07-29T05:51:04.477Z,14.93
2022-07-29T05:53:33.866Z,14.52
2022-07-29T05:56:05.395Z,12.90
2022-07-29T05:58:34.755Z,15.55
2022-07-29T06:01:05.151Z,12.07
2022-07-29T06:03:34.102Z,15.15
2022-07-29T06:06:03.191Z,13.15
2022-07-29T06:08:32.136Z,12.93
2022-07-29T06:11:01.018Z,14.35
2022-07-29T06:13:29.992Z,13.02
2022-07-29T06:15:59.029Z,13.65
2022-07-29T06:18:30.087Z,12.13
2022-07-29T06:20:59.347Z,15.33
2022-07-29T06:23:28.292Z,14.35
2022-07-29T06:26:15.441Z,11.63
2022-07-29T06:28:44.343Z,14.73
2022-07-29T06:31:13.230Z,16.63
2022-07-29T06:34:02.313Z,13.57
2022-07-29T06:36:32.417Z,15.88
2022-07-29T06:39:01.246Z,14.88
2022-07-29T06:41:32.908Z,11.25
2022-07-29T06:44:08.847Z,13.98
2022-07-29T06:46:37.983Z,10.97
2022-07-29T06:49:08.410Z,13.93
2022-07-29T06:51:37.342Z,14.98
2022-07-29T06:54:06.940Z,12.10
2022-07-29T06:56:39.326Z,16.02
2022-07-29T06:59:08.699Z,13.90
2022-07-29T07:01:37.920Z,15.77
2022-07-29T07:04:09.992Z,21.38
2022-07-29T07:06:39.032Z,15.00
2022-07-29T07:09:07.923Z,14.45
2022-07-29T07:11:37.002Z,14.23
2022-07-29T07:14:05.910Z,12.38
2022-07-29T07:16:34.889Z,13.95
2022-07-29T07:19:03.815Z,14.43
2022-07-29T07:21:52.329Z,15.70
2022-07-29T07:24:21.285Z,13.33
2022-07-29T07:26:50.603Z,10.90
2022-07-29T07:29:19.767Z,13.98
2022-07-29T07:31:48.680Z,15.32
2022-07-29T07:34:17.971Z,14.07
2022-07-29T07:36:58.898Z,12.07
2022-07-29T07:39:28.349Z,10.00
2022-07-29T07:41:57.395Z,15.18
2022-07-29T07:44:26.283Z,11.23
2022-07-29T07:46:55.279Z,12.70
2022-07-29T07:49:24.215Z,10.33
2022-07-29T07:51:53.978Z,13.85
2022-07-29T07:54:24.374Z,12.02
2022-07-29T07:56:53.633Z,11.63
2022-07-29T07:59:22.524Z,10.48
2022-07-29T08:01:56.156Z,14.67
2022-07-29T08:04:28.360Z,10.25
2022-07-29T08:06:58.052Z,10.52
2022-07-29T08:09:30.070Z,11.48
2022-07-29T08:11:59.422Z,9.30
2022-07-29T08:14:28.277Z,12.20
2022-07-29T08:16:57.436Z,10.18
2022-07-29T08:19:26.302Z,9.45
2022-07-29T08:21:55.976Z,10.80
2022-07-29T08:24:54.877Z,14.25
2022-07-29T08:27:42.952Z,16.77
2022-07-29T08:30:12.581Z,11.10
2022-07-29T08:32:53.761Z,9.60
2022-07-29T08:35:23.932Z,10.45
2022-07-29T08:37:52.956Z,9.48
2022-07-29T08:40:32.574Z,12.43
2022-07-29T08:43:06.512Z,10.15
2022-07-29T08:45:39.225Z,9.88
2022-07-29T08:48:14.348Z,13.98
2022-07-29T08:50:43.533Z,8.63
2022-07-29T08:53:16.125Z,10.57
2022-07-29T08:55:45.273Z,11.60
2022-07-29T08:58:15.966Z,8.73
2022-07-29T09:01:04.023Z,9.55
2022-07-29T09:03:36.761Z,11.93
2022-07-29T09:06:05.771Z,8.67
2022-07-29T09:08:34.903Z,9.35
2022-07-29T09:11:05.595Z,10.40
2022-07-29T09:13:36.184Z,11.20
2022-07-29T09:16:09.350Z,10.32
2022-07-29T09:18:39.113Z,9.57
2022-07-29T09:21:25.308Z,10.88
2022-07-29T09:24:03.714Z,8.23
2022-07-29T09:26:32.995Z,11.60
2022-07-29T09:29:03.712Z,10.23
2022-07-29T09:31:35.547Z,11.63
2022-07-29T09:34:04.581Z,14.20
2022-07-29T09:36:33.561Z,10.45
2022-07-29T09:39:02.846Z,11.32
2022-07-29T09:41:31.725Z,9.88
2022-07-29T09:44:00.856Z,11.83
2022-07-29T09:46:31.389Z,12.90
2022-07-29T09:49:10.253Z,12.02
2022-07-29T09:51:39.385Z,16.52
2022-07-29T09:54:23.102Z,11.60
2022-07-29T09:56:52.335Z,8.10
2022-07-29T09:59:23.579Z,9.05
2022-07-29T10:01:54.346Z,9.63
2022-07-29T10:04:23.526Z,8.43
2022-07-29T10:07:04.430Z,9.50
2022-07-29T10:09:34.570Z,12.90
2022-07-29T10:12:10.490Z,9.52
2022-07-29T10:14:39.605Z,7.88
2022-07-29T10:17:10.478Z,12.95
2022-07-29T10:19:39.569Z,7.75
2022-07-29T10:22:08.732Z,11.60
2022-07-29T10:24:38.481Z,8.80
2022-07-29T10:27:07.978Z,7.32
2022-07-29T10:29:37.329Z,10.38
2022-07-29T10:32:12.668Z,11.00
2022-07-29T10:35:04.164Z,9.07
2022-07-29T10:37:36.293Z,10.27
2022-07-29T10:40:27.679Z,12.95
2022-07-29T10:42:57.356Z,10.98
2022-07-29T10:45:26.497Z,10.90
2022-07-29T10:48:07.999Z,9.67
2022-07-29T10:50:56.621Z,10.25
2022-07-29T10:53:26.002Z,11.60
2022-07-29T10:56:06.230Z,14.05
2022-07-29T10:58:35.671Z,14.65
2022-07-29T11:01:04.535Z,8.87
2022-07-29T11:03:53.743Z,9.05
2022-07-29T11:06:28.126Z,9.35
2022-07-29T11:09:17.840Z,10.25
2022-07-29T11:12:00.551Z,9.57
2022-07-29T11:14:46.790Z,15.53
2022-07-29T11:17:16.187Z,15.05
2022-07-29T11:22:35.779Z,13.25
2022-07-29T11:25:17.110Z,14.85
2022-07-29T11:27:46.666Z,11.00
2022-07-29T11:30:17.011Z,13.63
2022-07-29T11:32:48.458Z,12.40
2022-07-29T11:35:37.568Z,16.15
2022-07-29T11:38:28.106Z,9.63
2022-07-29T11:41:16.211Z,10.07
2022-07-29T11:43:50.660Z,9.93
2022-07-29T11:46:25.164Z,10.30
2022-07-29T11:48:54.259Z,11.23
2022-07-29T11:51:32.821Z,9.77
2022-07-29T11:54:05.329Z,10.93
2022-07-29T11:56:34.808Z,14.60
2022-07-29T11:59:08.463Z,10.40
2022-07-29T12:01:37.574Z,9.52
2022-07-29T12:04:06.848Z,12.73
2022-07-29T12:06:37.479Z,14.37
2022-07-29T12:09:11.320Z,10.80
2022-07-29T12:11:44.980Z,13.07
2022-07-29T12:14:29.180Z,10.00
2022-07-29T12:16:58.229Z,9.75
2022-07-29T12:19:27.650Z,10.30
2022-07-29T12:22:00.881Z,11.32
2022-07-29T12:24:49.866Z,10.82
2022-07-29T12:27:28.554Z,13.20
2022-07-29T12:29:58.974Z,9.38
2022-07-29T12:32:33.506Z,13.43
2022-07-29T12:35:02.662Z,11.63
2022-07-29T12:37:41.111Z,12.07
2022-07-29T12:40:12.148Z,10.77
2022-07-29T12:42:41.081Z,12.93
2022-07-29T12:45:10.280Z,12.63
2022-07-29T12:47:53.389Z,11.02
2022-07-29T12:50:26.260Z,12.90
2022-07-29T12:52:57.079Z,14.93
2022-07-29T12:55:41.291Z,12.80
2022-07-29T12:58:10.209Z,14.70
2022-07-29T13:00:39.135Z,12.50
2022-07-29T13:03:26.514Z,12.15
2022-07-29T13:05:56.234Z,13.20
2022-07-29T13:08:26.553Z,14.98
2022-07-29T13:10:57.142Z,12.30
2022-07-29T13:13:25.999Z,12.43
2022-07-29T13:16:07.873Z,10.88
2022-07-29T13:19:10.463Z,11.80
2022-07-29T13:21:39.638Z,11.38
2022-07-29T13:24:10.362Z,14.53
2022-07-29T13:26:57.912Z,12.07
2022-07-29T13:29:31.381Z,21.92
2022-07-29T13:32:01.178Z,12.30
2022-07-29T13:34:30.225Z,11.88
2022-07-29T13:36:59.129Z,13.03
2022-07-29T13:39:29.410Z,12.27
2022-07-29T13:41:58.894Z,11.40
2022-07-29T13:44:29.269Z,15.13
2022-07-29T13:47:00.306Z,10.95
2022-07-29T13:49:29.697Z,12.73
2022-07-29T13:51:58.797Z,10.05
2022-07-29T13:54:29.844Z,12.57
2022-07-29T13:56:58.934Z,12.73
2022-07-29T13:59:27.874Z,12.80
2022-07-29T14:01:57.005Z,14.10
2022-07-29T14:04:26.220Z,11.75
2022-07-29T14:06:55.068Z,12.70
2022-07-29T14:09:24.091Z,11.98
2022-07-29T14:11:54.584Z,14.02
2022-07-29T14:14:23.499Z,12.80
2022-07-29T14:16:52.591Z,14.25
2022-07-29T14:19:21.637Z,13.00
2022-07-29T14:21:50.593Z,12.60
2022-07-29T14:24:23.078Z,16.10
2022-07-29T14:26:54.336Z,15.47
2022-07-29T14:29:23.439Z,13.23
2022-07-29T14:32:07.638Z,14.52
2022-07-29T14:34:36.853Z,14.45
2022-07-29T14:37:07.100Z,12.32
2022-07-29T14:39:42.516Z,13.67
2022-07-29T14:42:14.370Z,13.65
2022-07-29T14:44:44.737Z,12.60
2022-07-29T14:47:13.696Z,11.15
2022-07-29T14:49:42.703Z,14.77
2022-07-29T14:52:11.715Z,14.83
2022-07-29T14:54:59.222Z,15.57
2022-07-29T14:57:29.771Z,13.07
2022-07-29T14:59:58.662Z,12.63
2022-07-29T15:02:45.814Z,16.33
2022-07-29T15:05:16.864Z,13.67
2022-07-29T15:07:45.750Z,12.75
2022-07-29T15:10:15.501Z,15.77
2022-07-29T15:12:45.940Z,12.13
2022-07-29T15:15:15.116Z,13.63
2022-07-29T15:17:44.139Z,15.47
2022-07-29T15:20:13.639Z,19.63
2022-07-29T15:22:44.214Z,12.48
2022-07-29T15:25:13.531Z,14.48
2022-07-29T15:27:42.401Z,14.70
2022-07-29T15:30:33.565Z,15.90
2022-07-29T15:33:03.633Z,21.02
2022-07-29T15:35:32.723Z,17.13
2022-07-29T15:38:02.393Z,16.40
2022-07-29T15:40:31.237Z,19.35
2022-07-29T15:43:06.981Z,17.13
2022-07-29T15:45:40.899Z,15.57
2022-07-29T15:48:10.327Z,15.90
2022-07-29T15:50:47.161Z,16.70
2022-07-29T15:53:16.583Z,17.10
2022-07-29T15:55:46.630Z,15.43
2022-07-29T15:58:15.590Z,17.88
2022-07-29T16:00:45.920Z,18.67
2022-07-29T16:03:15.062Z,20.70
2022-07-29T16:05:44.054Z,16.10
2022-07-29T16:08:13.066Z,17.73
2022-07-29T16:10:42.071Z,16.92
2022-07-29T16:13:10.990Z,17.33
2022-07-29T16:16:02.602Z,24.52
2022-07-29T16:18:31.885Z,22.45
2022-07-29T16:21:00.862Z,16.97
2022-07-29T16:23:29.955Z,18.35
2022-07-29T16:26:00.524Z,16.88
2022-07-29T16:28:30.021Z,15.82
2022-07-29T16:31:00.326Z,24.13
2022-07-29T16:33:30.407Z,23.70
2022-07-29T16:36:37.437Z,21.30
2022-07-29T16:39:06.799Z,21.80
2022-07-29T16:41:35.683Z,21.65
2022-07-29T16:44:23.146Z,20.13
2022-07-29T16:46:55.961Z,24.57
2022-07-29T16:49:25.332Z,23.65
2022-07-29T16:51:55.091Z,21.88
2022-07-29T16:54:24.010Z,23.38
2022-07-29T16:56:52.935Z,22.83
2022-07-29T16:59:21.947Z,20.57
2022-07-29T17:01:50.855Z,19.60
2022-07-29T17:04:21.303Z,20.55
2022-07-29T17:06:52.743Z,26.83
2022-07-29T17:09:21.700Z,21.45
2022-07-29T17:11:55.167Z,23.53
2022-07-29T17:14:42.807Z,19.02
2022-07-29T17:17:13.707Z,14.90
2022-07-29T17:19:46.106Z,23.95
2022-07-29T17:22:19.241Z,20.70
2022-07-29T17:24:48.685Z,22.03
2022-07-29T17:27:17.622Z,17.90
2022-07-29T17:29:46.566Z,18.00
2022-07-29T17:32:15.479Z,24.98
2022-07-29T17:35:04.121Z,16.60
2022-07-29T17:37:33.113Z,22.73
2022-07-29T17:40:01.984Z,22.63
2022-07-29T17:42:31.538Z,16.70
2022-07-29T17:45:00.428Z,17.70
2022-07-29T17:47:29.444Z,17.15
2022-07-29T17:49:58.321Z,25.23
2022-07-29T17:52:28.776Z,21.98
2022-07-29T17:54:57.644Z,21.27
2022-07-29T17:57:26.709Z,20.45
2022-07-29T17:59:55.647Z,22.08
2022-07-29T18:02:25.050Z,18.00
2022-07-29T18:04:55.518Z,19.45
2022-07-29T18:07:24.569Z,16.50
2022-07-29T18:10:00.046Z,20.75
2022-07-29T18:12:29.505Z,21.35
2022-07-29T18:14:58.364Z,20.77
2022-07-29T18:17:48.473Z,22.40
2022-07-29T18:20:16.348Z,21.42
2022-07-29T18:22:45.268Z,21.00
2022-07-29T18:25:15.697Z,21.23
2022-07-29T18:27:44.568Z,21.00
2022-07-29T18:30:15.259Z,22.58
2022-07-29T18:32:59.224Z,18.08
2022-07-29T18:35:33.295Z,21.40
2022-07-29T18:38:03.147Z,19.75
2022-07-29T18:40:52.426Z,18.73
2022-07-29T18:43:21.516Z,16.63
2022-07-29T18:45:51.068Z,18.92
2022-07-29T18:48:20.550Z,23.58
2022-07-29T18:50:50.234Z,20.38
2022-07-29T18:53:19.188Z,18.97
2022-07-29T18:55:48.132Z,20.20
2022-07-29T18:58:38.488Z,17.33
2022-07-29T19:01:07.437Z,19.42
2022-07-29T19:03:36.359Z,20.67
2022-07-29T19:06:05.594Z,19.20
2022-07-29T19:08:38.276Z,19.08
2022-07-29T19:11:07.113Z,20.65
2022-07-29T19:13:37.769Z,18.48
2022-07-29T19:16:07.009Z,20.05
2022-07-29T19:18:35.960Z,18.57
2022-07-29T19:21:04.818Z,17.73
2022-07-29T19:24:01.556Z,17.60
2022-07-29T19:26:22.819Z,16.85
2022-07-29T19:28:53.135Z,17.95
2022-07-29T19:31:22.167Z,21.03
2022-07-29T19:33:51.042Z,20.00
2022-07-29T19:36:20.143Z,19.13
2022-07-29T19:38:49.090Z,17.40
2022-07-29T19:41:18.116Z,19.50
2022-07-29T19:43:52.093Z,17.23
2022-07-29T19:46:23.540Z,20.23
2022-07-29T19:48:53.242Z,21.58
2022-07-29T19:51:22.750Z,21.17
2022-07-29T19:53:51.743Z,22.80
2022-07-29T19:56:20.771Z,24.87
2022-07-29T19:58:49.911Z,20.20
2022-07-29T20:01:21.035Z,21.50
2022-07-29T20:03:51.390Z,18.33
2022-07-29T20:06:20.306Z,19.40
2022-07-29T20:08:49.219Z,20.53
2022-07-29T20:11:18.288Z,17.55
2022-07-29T20:13:47.123Z,23.45
2022-07-29T20:16:16.077Z,19.92
2022-07-29T20:18:44.944Z,18.20
2022-07-29T20:21:34.263Z,25.23
2022-07-29T20:24:04.526Z,18.48
2022-07-29T20:26:33.407Z,17.30
2022-07-29T20:29:05.352Z,17.55
2022-07-29T20:31:34.340Z,19.60
2022-07-29T20:34:03.245Z,15.73
2022-07-29T20:36:33.668Z,19.48
2022-07-29T20:39:08.691Z,18.23
2022-07-29T20:41:55.958Z,16.98
2022-07-29T20:44:25.178Z,17.10
2022-07-29T20:46:54.117Z,19.03
2022-07-29T20:49:23.221Z,17.35
2022-07-29T20:51:53.909Z,14.85
2022-07-29T20:54:23.151Z,18.77
2022-07-29T20:56:51.991Z,20.52
2022-07-29T20:59:21.060Z,15.27
2022-07-29T21:01:49.945Z,20.08
2022-07-29T21:04:20.321Z,21.15
2022-07-29T21:06:49.357Z,16.42
2022-07-29T21:09:20.051Z,19.05
2022-07-29T21:11:48.918Z,16.70
